Time;durP1;ratioP1;P1;durP2;ratioP2;P2;SDS_P1;SDS_P2;PMS_P1;PMS_P2;Temp;Humidity;BMP_temperature;BMP_pressure;BME280_temperature;BME280_humidity;BME280_pressure;Samples;Min_cycle;Max_cycle;Signal;HPM_P1;HPM_P2
2023/06/01 00:01:12;;;;;;;;;8.50;6.25;;;;;21.81;42.85;101131.72;5090027;27;45631;-82
2023/06/01 00:03:38;;;;;;;;;8.75;7.00;;;;;21.77;43.16;101130.41;5074539;27;45509;-83
2023/06/01 00:06:03;;;;;;;;;9.75;8.75;;;;;21.70;43.86;101116.09;5074301;27;46053;-82
2023/06/01 00:08:29;;;;;;;;;11.00;9.50;;;;;21.68;43.31;101124.25;5073831;28;45583;-82
2023/06/01 00:10:54;;;;;;;;;9.00;9.00;;;;;21.65;43.85;101121.91;5072562;28;45968;-82
2023/06/01 00:13:19;;;;;;;;;10.00;9.00;;;;;21.64;43.58;101125.59;5073319;27;45731;-83
2023/06/01 00:15:45;;;;;;;;;7.25;7.25;;;;;21.61;43.76;101120.59;5073612;27;46507;-82
2023/06/01 00:18:12;;;;;;;;;9.75;8.00;;;;;21.60;44.66;101118.91;5073969;27;45691;-82
2023/06/01 00:20:38;;;;;;;;;9.75;8.75;;;;;21.59;44.58;101116.44;5073941;28;45649;-82
2023/06/01 00:23:04;;;;;;;;;9.50;9.00;;;;;21.54;44.97;101122.25;5073572;27;45651;-84
2023/06/01 00:28:51;;;;;;;;;6.00;6.00;;;;;21.46;45.24;101103.59;5073936;28;45670;-82
2023/06/01 00:31:16;;;;;;;;;9.00;9.00;;;;;21.43;45.34;101111.94;5074112;27;45474;-82
2023/06/01 00:33:42;;;;;;;;;12.50;10.25;;;;;21.40;45.86;101106.09;5073224;28;45727;-81
2023/06/01 00:36:07;;;;;;;;;11.00;9.00;;;;;21.37;46.08;101109.94;5073461;27;45765;-82
2023/06/01 00:38:33;;;;;;;;;9.50;9.00;;;;;21.30;46.23;101114.28;5073736;27;45551;-82
2023/06/01 00:44:19;;;;;;;;;8.25;8.00;;;;;21.21;46.09;101112.59;5073020;28;45638;-82
2023/06/01 00:46:45;;;;;;;;;12.75;10.25;;;;;21.17;46.71;101113.91;5073345;28;46456;-82
2023/06/01 00:49:10;;;;;;;;;9.75;9.50;;;;;21.11;46.79;101112.72;5073428;28;45501;-81
2023/06/01 00:51:36;;;;;;;;;12.00;11.00;;;;;21.11;47.45;101122.53;5073555;27;45589;-80
2023/06/01 00:54:02;;;;;;;;;10.25;9.50;;;;;21.05;47.53;101116.06;5072943;27;46398;-81
2023/06/01 00:56:28;;;;;;;;;12.00;11.00;;;;;20.99;47.77;101107.88;5073200;27;46092;-81
2023/06/01 00:58:54;;;;;;;;;10.75;10.00;;;;;20.93;47.68;101110.22;5075502;27;45626;-81
2023/06/01 01:01:22;;;;;;;;;8.50;7.75;;;;;20.85;47.88;101115.50;5092864;27;45638;-81
2023/06/01 01:03:49;;;;;;;;;10.25;10.25;;;;;20.86;48.57;101116.34;5077022;27;45662;-81
2023/06/01 01:06:41;;;;;;;;;15.25;13.50;;;;;20.82;49.14;101117.66;5077078;27;46017;-82
2023/06/01 01:09:17;;;;;;;;;12.50;11.75;;;;;20.77;49.21;101115.50;5077617;27;45807;-81
2023/06/01 01:12:03;;;;;;;;;13.00;12.00;;;;;20.71;48.97;101118.81;5092061;27;45977;-81
2023/06/01 01:14:50;;;;;;;;;14.00;11.75;;;;;20.63;49.55;101110.78;5076360;27;48044;-81
2023/06/01 01:17:30;;;;;;;;;15.00;14.00;;;;;20.62;50.08;101122.41;5075161;28;48275;-81
2023/06/01 01:20:08;;;;;;;;;12.75;12.50;;;;;20.53;49.48;101115.41;5076457;28;45716;-82
2023/06/01 01:23:04;;;;;;;;;13.00;12.00;;;;;20.51;49.95;101128.06;5076709;27;45512;-82
2023/06/01 01:25:59;;;;;;;;;11.25;10.25;;;;;20.46;50.35;101138.34;5076234;27;46608;-81
2023/06/01 01:28:37;;;;;;;;;12.75;12.00;;;;;20.42;50.48;101143.16;4997248;28;47381;-84
2023/06/01 01:31:04;;;;;;;;;16.75;14.25;;;;;20.40;50.89;101141.66;5014584;28;45669;-82
2023/06/01 01:33:32;;;;;;;;;14.25;12.75;;;;;20.34;51.27;101129.81;5014017;28;45705;-82
2023/06/01 01:35:59;;;;;;;;;16.00;15.00;;;;;20.30;51.21;101130.25;5013420;28;46555;-81
2023/06/01 01:38:25;;;;;;;;;13.50;13.50;;;;;20.27;50.99;101128.75;4997033;28;48171;-81
2023/06/01 01:40:52;;;;;;;;;16.00;15.50;;;;;20.25;51.64;101125.41;5014035;28;45710;-81
2023/06/01 01:43:18;;;;;;;;;16.00;15.00;;;;;20.24;51.65;101129.06;5014220;28;45773;-81
2023/06/01 01:45:48;;;;;;;;;18.25;16.00;;;;;20.23;51.98;101131.88;5013952;28;46760;-81
2023/06/01 01:48:35;;;;;;;;;14.00;13.00;;;;;20.18;51.82;101129.72;5013689;28;45555;-81
2023/06/01 01:51:10;;;;;;;;;17.25;14.00;;;;;20.18;51.73;101129.72;5013578;28;45689;-81
2023/06/01 01:53:38;;;;;;;;;18.25;16.00;;;;;20.14;52.48;101120.34;5014175;28;45817;-80
2023/06/01 01:56:06;;;;;;;;;17.75;15.00;;;;;20.12;53.00;101127.69;5013548;28;45718;-80
2023/06/01 01:58:32;;;;;;;;;22.75;18.50;;;;;20.03;53.37;101121.47;4996911;28;46267;-81
2023/06/01 02:00:58;;;;;;;;;21.00;17.25;;;;;19.95;53.46;101137.38;5013788;28;45910;-82
2023/06/01 02:03:23;;;;;;;;;16.75;14.50;;;;;19.86;53.67;101125.03;5013671;28;45548;-83
2023/06/01 02:05:49;;;;;;;;;15.75;14.75;;;;;19.83;53.73;101124.50;5070630;28;46330;-82
2023/06/01 02:08:14;;;;;;;;;16.50;15.50;;;;;19.79;53.29;101129.28;5075563;28;46172;-82
2023/06/01 02:10:40;;;;;;;;;19.75;17.25;;;;;19.77;53.90;101128.59;5074530;28;45705;-82
2023/06/01 02:13:06;;;;;;;;;16.25;14.25;;;;;19.74;53.95;101120.94;5075377;27;45641;-82
2023/06/01 02:15:31;;;;;;;;;17.00;15.25;;;;;19.70;53.77;101117.75;5075058;28;46808;-83
2023/06/01 02:17:58;;;;;;;;;19.50;16.50;;;;;19.70;53.93;101122.25;5074325;28;45708;-82
2023/06/01 02:20:24;;;;;;;;;20.00;19.25;;;;;19.66;53.63;101119.06;5073909;28;45802;-82
2023/06/01 02:22:49;;;;;;;;;18.50;17.50;;;;;19.68;54.18;101118.91;5075493;28;45711;-81
2023/06/01 02:25:15;;;;;;;;;21.00;16.00;;;;;19.64;55.16;101109.59;5075165;28;45582;-82
2023/06/01 02:27:41;;;;;;;;;16.50;15.75;;;;;19.59;54.35;101107.41;5075387;28;45564;-81
2023/06/01 02:30:07;;;;;;;;;21.75;18.00;;;;;19.56;54.63;101118.31;5073842;28;45608;-81
2023/06/01 02:32:34;;;;;;;;;21.00;18.00;;;;;19.50;54.82;101103.00;5075977;28;45728;-83
2023/06/01 02:35:00;;;;;;;;;24.25;19.50;;;;;19.50;54.29;101116.28;5075439;28;46696;-83
2023/06/01 02:37:25;;;;;;;;;19.75;18.50;;;;;19.46;54.91;101106.94;5078190;27;45875;-82
2023/06/01 02:39:51;;;;;;;;;23.50;20.75;;;;;19.43;54.69;101109.91;5077250;28;45574;-82
2023/06/01 02:42:16;;;;;;;;;19.25;18.25;;;;;19.46;55.05;101119.41;5076969;28;45546;-84
2023/06/01 02:44:41;;;;;;;;;19.00;19.00;;;;;19.45;54.67;101120.38;5076972;27;45567;-82
2023/06/01 02:47:07;;;;;;;;;23.00;20.00;;;;;19.39;55.41;101118.31;5077808;27;45558;-82
2023/06/01 02:49:32;;;;;;;;;25.50;20.50;;;;;19.35;55.70;101114.28;5075692;27;45690;-82
2023/06/01 02:51:58;;;;;;;;;25.00;20.25;;;;;19.33;55.26;101124.22;5075249;28;45770;-82
2023/06/01 02:54:23;;;;;;;;;18.00;17.00;;;;;19.28;56.20;101119.38;5074686;27;45540;-81
2023/06/01 03:00:15;;;;;;;;;28.00;23.75;;;;;19.15;56.16;101117.13;5074963;28;45788;-82
2023/06/01 03:02:44;;;;;;;;;25.00;20.50;;;;;19.08;56.84;101112.56;5075022;28;45697;-81
2023/06/01 03:05:16;;;;;;;;;27.00;24.75;;;;;19.04;56.99;101121.81;5074484;27;46294;-82
2023/06/01 03:07:43;;;;;;;;;21.75;18.00;;;;;18.96;57.08;101106.63;5090173;27;48528;-81
2023/06/01 03:10:09;;;;;;;;;25.50;21.75;;;;;18.90;57.07;101114.34;5090169;27;45928;-83
2023/06/01 03:12:34;;;;;;;;;21.25;20.00;;;;;18.87;57.29;101107.53;5074482;27;45707;-81
2023/06/01 03:15:00;;;;;;;;;25.00;23.00;;;;;18.80;57.45;101112.59;5074336;28;46432;-82
2023/06/01 03:17:25;;;;;;;;;27.00;23.00;;;;;18.76;56.99;101113.91;5074673;28;45538;-81
2023/06/01 03:19:51;;;;;;;;;26.25;25.25;;;;;18.70;57.74;101111.00;5074672;27;45742;-80
2023/06/01 03:22:16;;;;;;;;;22.75;22.50;;;;;18.66;57.55;101105.16;5074699;28;45449;-80
2023/06/01 03:24:42;;;;;;;;;27.75;23.25;;;;;18.62;57.50;101109.09;5074351;27;45523;-81
2023/06/01 03:30:29;;;;;;;;;27.75;21.50;;;;;18.60;57.59;101121.69;5074451;28;45525;-82
2023/06/01 03:32:55;;;;;;;;;26.00;24.00;;;;;18.58;58.72;101126.28;5074860;27;45534;-80
2023/06/01 03:35:20;;;;;;;;;25.25;24.50;;;;;18.53;58.72;101120.56;5074689;28;46464;-82
2023/06/01 03:37:46;;;;;;;;;28.25;25.25;;;;;18.49;58.07;101128.97;5074849;28;46183;-82
2023/06/01 03:40:12;;;;;;;;;29.00;26.00;;;;;18.43;57.91;101122.44;5089965;27;45688;-82
2023/06/01 03:42:37;;;;;;;;;28.75;25.75;;;;;18.42;58.12;101116.28;5074707;27;45677;-81
2023/06/01 03:45:04;;;;;;;;;25.00;23.75;;;;;18.37;58.51;101117.69;5073838;27;46384;-80
2023/06/01 03:47:30;;;;;;;;;22.25;21.25;;;;;18.39;58.09;101113.09;5074301;27;46188;-80
2023/06/01 03:49:55;;;;;;;;;30.50;26.00;;;;;18.38;58.59;101116.72;5074205;27;45580;-80
2023/06/01 03:52:20;;;;;;;;;28.25;25.25;;;;;18.38;58.88;101119.38;5074344;27;45596;-83
2023/06/01 03:54:46;;;;;;;;;29.00;26.75;;;;;18.35;58.64;101117.84;5073435;27;45618;-82
2023/06/01 04:00:33;;;;;;;;;25.25;22.25;;;;;18.32;59.44;101117.31;5073638;28;45628;-81
2023/06/01 04:03:02;;;;;;;;;24.00;24.00;;;;;18.28;59.58;101121.25;5074002;27;45742;-81
2023/06/01 04:05:28;;;;;;;;;26.00;25.25;;;;;18.25;59.78;101114.41;5073678;27;46567;-82
2023/06/01 04:07:54;;;;;;;;;29.50;27.50;;;;;18.21;59.66;101117.50;5074021;27;45686;-81
2023/06/01 04:10:21;;;;;;;;;23.25;23.25;;;;;18.17;60.15;101114.31;5074270;27;45805;-82
2023/06/01 04:16:22;;;;;;;;;36.00;28.75;;;;;18.01;59.83;101119.38;5065262;28;45727;-81
2023/06/01 04:18:47;;;;;;;;;28.50;27.00;;;;;17.99;60.55;101129.28;5074092;27;45712;-81
2023/06/01 04:21:12;;;;;;;;;29.25;26.25;;;;;17.95;60.53;101125.25;5073676;28;45594;-81
2023/06/01 04:23:38;;;;;;;;;30.50;25.25;;;;;17.93;60.69;101128.03;5073878;28;45738;-81
2023/06/01 04:26:04;;;;;;;;;30.75;26.25;;;;;17.89;60.50;101129.31;5073946;28;45692;-81
2023/06/01 04:28:32;;;;;;;;;30.75;29.50;;;;;17.89;61.08;101131.13;5073644;28;46649;-81
2023/06/01 04:30:58;;;;;;;;;30.75;29.00;;;;;17.87;60.96;101141.88;5073925;27;45923;-81
2023/06/01 04:33:24;;;;;;;;;28.50;25.50;;;;;17.83;61.07;101131.69;5073526;28;45534;-82
2023/06/01 04:35:52;;;;;;;;;29.75;26.25;;;;;17.79;61.29;101133.81;5076982;27;46394;-80
2023/06/01 04:38:18;;;;;;;;;28.50;26.75;;;;;17.76;60.91;101130.63;5077008;27;46330;-80
2023/06/01 04:40:46;;;;;;;;;33.50;29.25;;;;;17.78;61.05;101134.78;5075509;28;46119;-80
2023/06/01 04:43:18;;;;;;;;;26.75;24.00;;;;;17.75;61.64;101131.59;5077184;28;45689;-80
2023/06/01 04:45:45;;;;;;;;;33.25;31.00;;;;;17.75;62.08;101131.59;5076610;27;45580;-80
2023/06/01 04:48:10;;;;;;;;;30.00;22.25;;;;;17.70;61.45;101133.84;5076525;27;46157;-80
2023/06/01 04:50:37;;;;;;;;;37.75;29.50;;;;;17.67;61.97;101139.41;5076986;27;45743;-80
2023/06/01 04:53:03;;;;;;;;;35.75;30.75;;;;;17.64;62.15;101134.41;5076910;27;45570;-80
2023/06/01 04:55:28;;;;;;;;;37.00;31.50;;;;;17.63;61.49;101143.31;5074261;27;46552;-79
2023/06/01 05:01:15;;;;;;;;;33.00;31.25;;;;;17.63;62.05;101144.16;5075487;28;45659;-82
2023/06/01 05:03:45;;;;;;;;;36.50;31.50;;;;;17.63;62.17;101149.47;5076315;27;45672;-81
2023/06/01 05:06:12;;;;;;;;;36.50;30.25;;;;;17.59;62.00;101142.75;5076378;27;47211;-82
2023/06/01 05:08:41;;;;;;;;;40.75;31.75;;;;;17.58;62.33;101147.22;5076565;27;46210;-82
2023/06/01 05:11:08;;;;;;;;;31.50;29.75;;;;;17.58;62.15;101141.91;5076233;27;45580;-81
2023/06/01 05:13:35;;;;;;;;;34.75;32.00;;;;;17.56;62.49;101143.84;5076502;27;45654;-82
2023/06/01 05:16:01;;;;;;;;;30.75;28.75;;;;;17.56;62.58;101150.97;5076180;27;45855;-82
2023/06/01 05:18:26;;;;;;;;;36.75;32.00;;;;;17.52;62.65;101152.22;5076572;28;45607;-81
2023/06/01 05:20:51;;;;;;;;;35.50;29.50;;;;;17.51;62.95;101151.38;5076747;27;45461;-81
2023/06/01 05:23:17;;;;;;;;;33.50;31.00;;;;;17.49;62.68;101155.16;5074952;28;45569;-82
2023/06/01 05:25:42;;;;;;;;;33.00;31.00;;;;;17.44;63.14;101150.25;5074655;28;46285;-81
2023/06/01 05:31:30;;;;;;;;;26.25;26.25;;;;;17.42;63.37;101160.19;5076767;28;46005;-81
2023/06/01 05:33:56;;;;;;;;;40.00;33.00;;;;;17.40;63.09;101148.88;5078710;27;45716;-82
2023/06/01 05:36:22;;;;;;;;;37.00;30.00;;;;;17.39;62.84;101160.44;5078204;28;47603;-81
2023/06/01 05:38:47;;;;;;;;;33.50;29.50;;;;;17.42;63.10;101160.19;5080527;27;45655;-81
2023/06/01 05:41:12;;;;;;;;;38.50;32.00;;;;;17.42;62.88;101162.00;5076796;28;45616;-82
2023/06/01 05:46:59;;;;;;;;;38.25;29.25;;;;;17.45;62.80;101162.53;5078097;28;45539;-84
2023/06/01 05:49:25;;;;;;;;;32.75;27.50;;;;;17.50;63.23;101162.13;5076111;28;46917;-78
2023/06/01 05:51:51;;;;;;;;;32.00;29.50;;;;;17.52;62.61;101179.56;5077522;27;45714;-80
2023/06/01 05:54:16;;;;;;;;;32.50;29.75;;;;;17.52;62.34;101157.53;5076642;27;45661;-80
2023/06/01 05:56:41;;;;;;;;;37.00;33.00;;;;;17.51;62.82;101161.16;5075889;28;46258;-82
2023/06/01 05:59:07;;;;;;;;;35.75;32.00;;;;;17.53;62.60;101170.63;5075778;28;46125;-80
2023/06/01 06:01:32;;;;;;;;;32.75;29.75;;;;;17.53;62.97;101153.91;5075303;28;45655;-84
2023/06/01 06:03:58;;;;;;;;;31.75;30.25;;;;;17.54;62.49;101163.53;5075551;27;45584;-80
2023/06/01 06:06:23;;;;;;;;;36.25;31.75;;;;;17.53;62.73;101168.00;5076532;28;45756;-81
2023/06/01 06:08:50;;;;;;;;;36.25;32.00;;;;;17.53;62.61;101156.56;5075323;27;46001;-82
2023/06/01 06:11:15;;;;;;;;;37.25;33.50;;;;;17.55;62.59;101151.94;5075708;28;45580;-79
2023/06/01 06:17:03;;;;;;;;;36.50;32.00;;;;;17.61;62.71;101159.34;5065408;28;46060;-81
2023/06/01 06:19:28;;;;;;;;;34.75;32.00;;;;;17.63;62.74;101153.91;5075267;27;45791;-80
2023/06/01 06:21:53;;;;;;;;;35.50;29.00;;;;;17.65;62.30;101168.72;5076010;28;45659;-79
2023/06/01 06:24:19;;;;;;;;;34.75;29.75;;;;;17.65;62.71;101158.13;5076538;28;45597;-78
2023/06/01 06:26:45;;;;;;;;;43.75;33.75;;;;;17.69;62.34;101158.66;5076694;28;46244;-79
2023/06/01 06:29:10;;;;;;;;;35.00;31.75;;;;;17.72;62.41;101159.22;5076480;27;45809;-81
2023/06/01 06:31:36;;;;;;;;;33.00;30.75;;;;;17.75;62.41;101164.25;5076874;27;45660;-80
2023/06/01 06:34:01;;;;;;;;;34.50;30.75;;;;;17.78;61.95;101163.94;5075087;28;45985;-80
2023/06/01 06:36:27;;;;;;;;;36.00;31.25;;;;;17.81;62.18;101168.97;5075861;28;46752;-80
2023/06/01 06:38:52;;;;;;;;;41.50;35.00;;;;;17.82;62.27;101161.84;5079963;28;46734;-83
2023/06/01 06:41:17;;;;;;;;;34.50;32.50;;;;;17.85;62.05;101164.22;5077386;28;45597;-82
2023/06/01 06:47:05;;;;;;;;;35.25;30.50;;;;;17.89;62.02;101150.53;5076137;28;46108;-83
2023/06/01 06:49:30;;;;;;;;;36.25;32.75;;;;;17.88;61.46;101161.28;5076033;27;45711;-85
2023/06/01 06:51:56;;;;;;;;;34.50;32.00;;;;;17.87;61.23;101163.09;5074663;28;45639;-83
2023/06/01 06:54:22;;;;;;;;;31.25;28.50;;;;;17.88;61.55;101159.47;5076844;27;45514;-83
2023/06/01 06:56:47;;;;;;;;;39.75;34.00;;;;;17.84;61.74;101160.72;5076576;28;45519;-80
2023/06/01 07:02:35;;;;;;;;;34.75;29.00;;;;;17.91;61.88;101169.78;5073322;28;45839;-83
2023/06/01 07:05:00;;;;;;;;;37.00;33.00;;;;;17.94;61.65;101160.69;5073642;28;45834;-81
2023/06/01 07:07:26;;;;;;;;;28.50;27.00;;;;;17.99;61.52;101169.06;5075963;27;45688;-82
2023/06/01 07:09:52;;;;;;;;;27.00;25.25;;;;;18.01;60.94;101175.91;5076159;27;45628;-80
2023/06/01 07:12:18;;;;;;;;;31.25;29.00;;;;;18.07;61.21;101176.31;5078126;27;45553;-82
2023/06/01 07:14:43;;;;;;;;;32.75;31.00;;;;;18.10;61.14;101179.50;5079843;27;45493;-82
2023/06/01 07:17:09;;;;;;;;;35.00;32.00;;;;;18.09;60.71;101161.91;5078198;28;45636;-82
2023/06/01 07:19:34;;;;;;;;;33.25;31.25;;;;;18.14;61.01;101167.63;5074309;28;47720;-81
2023/06/01 07:22:00;;;;;;;;;31.50;30.00;;;;;18.17;60.95;101167.34;5076420;27;45522;-82
2023/06/01 07:24:26;;;;;;;;;38.75;32.25;;;;;18.18;60.62;101158.41;5076374;27;45766;-81
2023/06/01 07:26:52;;;;;;;;;35.50;30.50;;;;;18.22;60.51;101166.91;5074987;27;46441;-85
2023/06/01 07:32:42;;;;;;;;;36.25;31.75;;;;;18.32;60.14;101179.16;5075258;28;45821;-80
2023/06/01 07:35:08;;;;;;;;;32.50;30.00;;;;;18.31;60.63;101177.50;5075682;28;45862;-83
2023/06/01 07:37:33;;;;;;;;;30.50;29.25;;;;;18.37;60.09;101170.75;5075262;27;47299;-80
2023/06/01 07:39:59;;;;;;;;;34.00;30.00;;;;;18.40;60.18;101176.63;5073936;28;46039;-82
2023/06/01 07:42:25;;;;;;;;;36.50;32.00;;;;;18.44;60.45;101187.78;5074715;28;45587;-81
2023/06/01 07:48:11;;;;;;;;;35.50;31.00;;;;;18.48;59.92;101188.31;5074477;28;45534;-84
2023/06/01 07:50:37;;;;;;;;;34.50;29.25;;;;;18.51;59.86;101191.53;5074504;28;46152;-84
2023/06/01 07:53:02;;;;;;;;;37.00;31.25;;;;;18.53;60.08;101189.56;5074558;28;45742;-85
2023/06/01 07:55:28;;;;;;;;;38.25;31.50;;;;;18.59;59.49;101190.81;5074216;27;45927;-82
2023/06/01 07:57:53;;;;;;;;;34.25;30.75;;;;;18.61;59.72;101189.72;5074191;27;46392;-82
2023/06/01 08:03:44;;;;;;;;;29.25;26.00;;;;;18.77;59.13;101200.53;5073815;28;45513;-84
2023/06/01 08:06:09;;;;;;;;;33.25;30.25;;;;;18.83;58.79;101204.41;5074255;27;45623;-82
2023/06/01 08:08:35;;;;;;;;;32.00;29.50;;;;;18.88;59.04;101199.50;5071784;27;45580;-80
2023/06/01 08:11:01;;;;;;;;;31.75;28.00;;;;;18.92;58.67;101192.91;5072265;28;46240;-83
2023/06/01 08:13:28;;;;;;;;;38.75;30.75;;;;;18.98;58.94;101194.97;5072465;28;45755;-80
2023/06/01 08:15:53;;;;;;;;;31.75;29.25;;;;;19.01;58.86;101189.34;5074260;28;45643;-81
2023/06/01 08:18:22;;;;;;;;;35.00;30.75;;;;;19.06;58.94;101191.53;5074096;28;45630;-83
2023/06/01 08:20:48;;;;;;;;;31.50;30.25;;;;;19.10;58.31;101190.28;5073934;27;46310;-81
2023/06/01 08:23:16;;;;;;;;;38.25;30.75;;;;;19.16;58.23;101187.84;5073426;27;45676;-82
2023/06/01 08:25:42;;;;;;;;;33.75;29.00;;;;;19.23;58.30;101186.25;5073852;27;45590;-81
2023/06/01 08:28:08;;;;;;;;;29.75;27.50;;;;;19.29;58.59;101195.44;5073698;27;46503;-81
2023/06/01 08:33:55;;;;;;;;;27.50;26.75;;;;;19.39;57.83;101192.72;5073507;28;45689;-80
2023/06/01 08:36:21;;;;;;;;;29.00;27.00;;;;;19.44;57.96;101190.44;5074518;27;45525;-82
2023/06/01 08:38:48;;;;;;;;;26.75;23.00;;;;;19.47;57.82;101187.53;5075096;28;45871;-83
2023/06/01 08:41:50;;;;;;;;;30.00;28.00;;;;;19.52;57.48;101193.22;5073747;28;46020;-80
2023/06/01 08:44:22;;;;;;;;;27.50;26.75;;;;;19.54;57.48;101185.94;5073254;28;45906;-82
2023/06/01 08:46:48;;;;;;;;;29.50;28.50;;;;;19.60;57.53;101175.50;5073694;27;45665;-81
2023/06/01 08:49:15;;;;;;;;;29.00;27.50;;;;;19.63;57.40;101180.53;5073418;27;46494;-81
2023/06/01 08:51:43;;;;;;;;;28.25;27.00;;;;;19.68;57.34;101185.38;5073671;27;46636;-79
2023/06/01 08:54:09;;;;;;;;;32.25;29.25;;;;;19.76;57.33;101179.31;5071829;28;45903;-80
2023/06/01 08:56:35;;;;;;;;;28.50;26.50;;;;;19.82;57.31;101178.66;5073728;27;45798;-80
2023/06/01 08:59:01;;;;;;;;;25.50;23.50;;;;;19.88;56.92;101176.22;5071719;28;48375;-82
2023/06/01 09:01:27;;;;;;;;;28.00;26.00;;;;;19.91;56.59;101170.63;5073110;27;45978;-80
2023/06/01 09:03:53;;;;;;;;;32.50;27.75;;;;;19.97;56.86;101177.94;5072765;27;45667;-81
2023/06/01 09:06:18;;;;;;;;;30.75;27.50;;;;;20.05;56.41;101175.34;5073595;28;45810;-82
2023/06/01 09:08:45;;;;;;;;;27.00;24.50;;;;;20.09;56.36;101179.34;5072865;27;46555;-82
2023/06/01 09:11:11;;;;;;;;;27.00;25.00;;;;;20.16;56.20;101173.41;5073283;27;45978;-81
2023/06/01 09:13:40;;;;;;;;;23.75;22.50;;;;;20.22;55.72;101170.13;5073493;27;45665;-82
2023/06/01 09:16:06;;;;;;;;;29.75;26.00;;;;;20.27;55.55;101173.16;5074366;27;45632;-83
2023/06/01 09:18:31;;;;;;;;;24.50;23.00;;;;;20.32;55.65;101168.22;5076089;27;45531;-80
2023/06/01 09:21:13;;;;;;;;;27.75;26.25;;;;;20.39;55.40;101179.91;5082666;28;47316;-80
2023/06/01 09:23:39;;;;;;;;;31.25;25.25;;;;;20.43;55.16;101173.28;5087557;27;45515;-80
2023/06/01 09:26:06;;;;;;;;;28.75;27.00;;;;;20.48;55.25;101178.94;5086800;27;45458;-79
2023/06/01 09:35:15;;;;;;;;;30.50;29.00;;;;;20.63;54.63;101156.03;5076792;28;45549;-81
2023/06/01 09:37:55;;;;;;;;;28.75;27.00;;;;;20.72;54.84;101148.94;5059671;27;46001;-81
2023/06/01 09:40:21;;;;;;;;;28.00;26.25;;;;;20.76;54.38;101158.25;5077078;27;45582;-83
2023/06/01 09:42:49;;;;;;;;;34.50;24.50;;;;;20.80;54.83;101154.28;5076834;27;46125;-82
2023/06/01 09:45:21;;;;;;;;;25.75;23.00;;;;;20.85;55.01;101144.81;5059135;28;45676;-83
2023/06/01 09:47:51;;;;;;;;;25.75;24.50;;;;;20.93;54.76;101154.66;5077518;27;45811;-81
2023/06/01 09:50:37;;;;;;;;;27.25;24.50;;;;;21.00;54.46;101146.84;5076118;28;45620;-83
2023/06/01 09:53:05;;;;;;;;;32.75;26.50;;;;;21.06;53.73;101143.50;5076869;27;45945;-82
2023/06/01 09:55:32;;;;;;;;;26.25;24.25;;;;;21.10;53.89;101150.22;5077555;27;45808;-81
2023/06/01 09:58:20;;;;;;;;;22.50;21.50;;;;;21.20;53.73;101148.25;5093934;27;45816;-81
2023/06/01 10:00:47;;;;;;;;;30.00;28.00;;;;;21.23;53.89;101147.91;5077932;28;46965;-81
2023/06/01 10:03:14;;;;;;;;;27.25;25.75;;;;;21.28;52.96;101149.09;5092574;27;46905;-80
2023/06/01 10:05:40;;;;;;;;;27.75;26.00;;;;;21.32;53.05;101150.41;5077511;27;45744;-82
2023/06/01 10:08:06;;;;;;;;;21.00;20.00;;;;;21.33;53.00;101143.25;5093342;27;45677;-81
2023/06/01 10:10:32;;;;;;;;;26.25;23.00;;;;;21.38;53.23;101140.91;5076701;27;45539;-81
2023/06/01 10:12:58;;;;;;;;;30.00;28.00;;;;;21.44;52.76;101132.25;5076204;27;45835;-81
2023/06/01 10:15:23;;;;;;;;;25.50;25.00;;;;;21.49;53.37;101140.59;5091904;27;45654;-81
2023/06/01 10:17:49;;;;;;;;;25.25;23.75;;;;;21.56;52.85;101133.59;5075666;28;45827;-83
2023/06/01 10:20:16;;;;;;;;;24.75;23.25;;;;;21.63;52.74;101131.09;5076132;27;46234;-80
2023/06/01 10:22:42;;;;;;;;;27.75;24.25;;;;;21.69;52.36;101131.28;5076250;27;45684;-81
2023/06/01 10:25:12;;;;;;;;;27.25;25.00;;;;;21.76;52.19;101126.06;5075588;27;45695;-81
2023/06/01 10:27:45;;;;;;;;;19.75;18.25;;;;;21.83;52.32;101123.56;5075911;27;45658;-81
2023/06/01 10:30:11;;;;;;;;;26.25;26.00;;;;;21.89;51.81;101130.91;5077479;27;45682;-81
2023/06/01 10:32:36;;;;;;;;;25.50;23.75;;;;;21.95;52.21;101128.41;5077001;28;45920;-81
2023/06/01 10:35:03;;;;;;;;;23.75;21.25;;;;;21.99;51.66;101119.06;5076923;28;45667;-82
2023/06/01 10:37:28;;;;;;;;;26.25;24.50;;;;;22.08;51.41;101128.72;5078260;27;45694;-82
2023/06/01 10:40:18;;;;;;;;;25.00;22.75;;;;;22.14;50.92;101128.03;5077409;28;47209;-82
2023/06/01 10:42:43;;;;;;;;;22.25;20.00;;;;;22.21;51.51;101112.16;5076685;28;45643;-82
2023/06/01 10:45:39;;;;;;;;;20.75;18.75;;;;;22.27;50.63;101107.97;5074817;27;45697;-81
2023/06/01 10:48:11;;;;;;;;;18.75;18.25;;;;;22.35;49.61;101111.44;5076736;27;45649;-81
2023/06/01 10:50:38;;;;;;;;;20.25;19.25;;;;;22.40;49.94;101114.41;5076387;27;45662;-81
2023/06/01 10:53:28;;;;;;;;;18.50;16.00;;;;;22.45;49.54;101108.56;5074988;28;46301;-81
2023/06/01 10:56:26;;;;;;;;;23.50;19.75;;;;;22.52;49.56;101115.69;5073780;28;45640;-82
2023/06/01 10:59:08;;;;;;;;;20.25;19.00;;;;;22.59;49.22;101121.19;5075374;27;45561;-81
2023/06/01 11:01:39;;;;;;;;;17.50;17.50;;;;;22.64;49.58;101104.63;5075439;28;46774;-81
2023/06/01 11:04:07;;;;;;;;;23.00;19.75;;;;;22.70;49.41;101114.63;5075589;27;46091;-82
2023/06/01 11:06:50;;;;;;;;;21.75;19.00;;;;;22.74;49.05;101114.13;5093440;27;45515;-80
2023/06/01 11:09:17;;;;;;;;;24.00;21.00;;;;;22.80;48.36;101120.59;5076259;27;46017;-80
2023/06/01 11:11:48;;;;;;;;;18.75;17.00;;;;;22.86;48.64;101088.66;5076001;27;46279;-81
2023/06/01 11:14:16;;;;;;;;;19.50;17.25;;;;;22.92;48.99;101100.50;5092973;27;46263;-82
2023/06/01 11:16:44;;;;;;;;;17.75;16.25;;;;;22.98;48.58;101094.44;5092095;27;45907;-81
2023/06/01 11:19:10;;;;;;;;;17.50;16.50;;;;;23.04;47.75;101095.56;5076722;27;45727;-83
2023/06/01 11:21:40;;;;;;;;;22.00;20.75;;;;;23.08;48.20;101083.50;5092851;27;45939;-83
2023/06/01 11:24:09;;;;;;;;;17.50;16.25;;;;;23.15;47.65;101095.16;5092919;27;46555;-83
2023/06/01 11:26:43;;;;;;;;;18.50;17.00;;;;;23.19;47.37;101088.44;5092918;27;45697;-82
2023/06/01 11:29:15;;;;;;;;;20.00;18.75;;;;;23.24;47.06;101094.06;5093237;27;45675;-82
2023/06/01 11:31:50;;;;;;;;;17.00;16.00;;;;;23.30;47.16;101094.19;5092726;27;46776;-82
2023/06/01 11:34:18;;;;;;;;;20.00;19.00;;;;;23.34;46.74;101090.16;5094110;27;45642;-83
2023/06/01 11:36:47;;;;;;;;;19.50;17.50;;;;;23.38;46.44;101077.22;5091409;27;45766;-82
2023/06/01 11:39:20;;;;;;;;;19.00;16.00;;;;;23.42;46.88;101092.75;5056711;28;45775;-82
2023/06/01 11:41:46;;;;;;;;;17.25;17.00;;;;;23.49;46.00;101086.69;5045729;28;46731;-82
2023/06/01 11:44:14;;;;;;;;;18.75;17.25;;;;;23.50;46.50;101075.00;5063453;28;45558;-84
2023/06/01 11:47:00;;;;;;;;;18.00;17.00;;;;;23.58;46.45;101078.44;5060927;28;45442;-83
2023/06/01 11:49:26;;;;;;;;;17.75;16.75;;;;;23.62;46.50;101078.91;5055263;27;45478;-81
2023/06/01 11:51:53;;;;;;;;;15.25;14.75;;;;;23.71;45.47;101080.47;5053264;28;47855;-84
2023/06/01 11:54:26;;;;;;;;;21.25;16.50;;;;;23.78;45.43;101078.72;5053744;28;45929;-84
2023/06/01 11:56:53;;;;;;;;;20.00;17.75;;;;;23.83;45.37;101084.38;5054014;28;45544;-84
2023/06/01 11:59:19;;;;;;;;;17.50;17.25;;;;;23.87;45.38;101069.59;5054044;28;45802;-83
2023/06/01 12:01:46;;;;;;;;;18.75;17.00;;;;;23.92;45.82;101061.84;5053670;28;46813;-83
2023/06/01 12:04:20;;;;;;;;;16.50;16.50;;;;;23.97;44.98;101058.63;5053579;28;46000;-82
2023/06/01 12:06:46;;;;;;;;;20.25;17.75;;;;;24.03;44.89;101057.88;5053681;28;45641;-83
2023/06/01 12:09:13;;;;;;;;;17.75;14.00;;;;;24.06;44.96;101061.03;5053977;28;45574;-83
2023/06/01 12:11:39;;;;;;;;;15.50;14.50;;;;;24.12;45.19;101062.97;5053456;28;45722;-83
2023/06/01 12:14:06;;;;;;;;;16.75;15.75;;;;;24.16;45.56;101055.38;5053336;28;45625;-82